Accueil
METAR-TAF:

METAR-TAF

Aéroports :

Schwäbisch Hall, Allemagne

latitude: 49-07-06N, longitude: 9-47-02E, altitude: 398 m

Observation

Le bulletin a été fait il y a 4 heures et 4 minutes, à 18:20 UTC
Vent 3 kt de direction variable
Température 6°C
Humidité 87%
Pression 1013 hPa
Visibilité 10 km ou plus
Quelques nuages à une hauteur de 2500 ft
Nuages fragmentés à une hauteur de 4700 ft
Ciel couvert à une hauteur de 6200 ft

METAR: EDTY 271820Z VRB03KT 9999 FEW025 BKN047 OVC062 06/04 Q1013

Heure: 00:24 (22:24 UTC)

Prévision

Le bulletin a été fait il y a 5 heures et 24 minutes, à 17:00 UTC
Prévision valable du 27 à 18 UTC au 28 à 03 UTC
Vent 4 kt de nord/nord-est
Visibilité 10 km ou plus
Nuages fragmentés à une hauteur de 2000 ft
Evoluant progressivement
du 27 à 20 UTC au 27 à 22 UTC
Nuages fragmentés à une hauteur de 900 ft

TAF: EDTY 271700Z 2718/2803 03004KT 9999 BKN020 BECMG 2720/2722 BKN009

Observations et prévisions météorologiques de plus de 4000 aéroports (messages METAR et TAF).

Les stations disponibles sont représentées par des disques jaunes et rouges sur la carte.

Passer la souris dessus pour voir le nom de la station.

Cliquer dessus pour voir les observations et prévisions météorologiques.

Pour changer de carte: cliquez sur les boutons verts avec une croix noire pour zoomer, sur le bouton vert avec un tiret pour effectuer un zoom arrière, ou sur les flèches vertes pour les cartes adjacentes.


METAR-TAF: